Terminal Aerodrome Forecast
Issued by NWS

Home | Current Version | Previous Version | Text Only | Print | Product List | Glossary On
Versions: 1 2 3 4 5 6 7 8 9 10 11 12 13 14
000
FTAK31 PANC 181742
TAFAIL
TAF
PAIL 181742Z 1818/1918 12005KT P6SM -SHRA SCT020 BKN030
     FM182100 13010KT P6SM SCT025 BKN035
     FM190000 13013KT P6SM SCT045 BKN090
     FM190800 09008KT P6SM VCSH BKN070=

USA.gov is the U.S. government's official web portal to all federal, state and local government web resources and services.